createdAt,value
2018-01-10T00:04:24.086Z,90.00
2018-01-10T00:09:26.668Z,90.00
2018-01-10T00:14:29.207Z,90.00
2018-01-10T00:19:31.765Z,90.00
2018-01-10T00:24:34.341Z,90.00
2018-01-10T00:29:37.703Z,90.00
2018-01-10T00:34:40.304Z,89.90
2018-01-10T00:39:43.668Z,89.70
2018-01-10T00:44:46.290Z,89.70
2018-01-10T00:49:49.627Z,89.70
2018-01-10T00:54:52.226Z,89.60
2018-01-10T00:59:54.864Z,89.80
2018-01-10T01:04:57.422Z,89.80
2018-01-10T01:09:59.989Z,89.80
2018-01-10T01:15:02.588Z,89.70
2018-01-10T01:20:05.155Z,89.40
2018-01-10T01:25:07.759Z,89.50
2018-01-10T01:30:10.308Z,89.60
2018-01-10T01:35:13.673Z,89.80
2018-01-10T01:40:16.232Z,89.70
2018-01-10T01:45:18.831Z,89.80
2018-01-10T01:50:22.233Z,90.00
2018-01-10T01:55:24.853Z,89.90
2018-01-10T02:00:28.240Z,90.20
2018-01-10T02:05:30.790Z,90.10
2018-01-10T02:10:33.371Z,90.20
2018-01-10T02:15:35.983Z,90.20
2018-01-10T02:20:38.598Z,90.10
2018-01-10T02:25:41.158Z,90.20
2018-01-10T02:30:44.571Z,90.20
2018-01-10T02:35:47.160Z,90.20
2018-01-10T02:40:49.768Z,90.30
2018-01-10T02:45:53.149Z,90.20
2018-01-10T02:50:55.726Z,90.20
2018-01-10T02:55:58.331Z,90.30
2018-01-10T03:01:00.880Z,90.20
2018-01-10T03:06:03.443Z,90.30
2018-01-10T03:11:06.012Z,90.40
2018-01-10T03:16:08.580Z,90.50
2018-01-10T03:21:11.130Z,90.40
2018-01-10T03:26:13.822Z,90.50
2018-01-10T03:31:16.418Z,90.50
2018-01-10T03:36:19.732Z,90.60
2018-01-10T03:41:23.099Z,90.80
2018-01-10T03:46:25.678Z,90.80
2018-01-10T03:51:28.231Z,90.70
2018-01-10T03:56:30.809Z,90.70
2018-01-10T04:01:33.373Z,90.80
2018-01-10T04:06:35.984Z,90.90
2018-01-10T04:11:38.600Z,90.90
2018-01-10T04:16:41.326Z,90.80
2018-01-10T04:21:43.939Z,91.00
2018-01-10T04:26:46.518Z,91.10
2018-01-10T04:31:49.107Z,91.00
2018-01-10T04:36:51.704Z,90.90
2018-01-10T04:41:54.278Z,91.00
2018-01-10T04:46:56.907Z,90.90
2018-01-10T04:51:59.507Z,91.00
2018-01-10T04:57:02.078Z,90.90
2018-01-10T05:02:04.672Z,91.00
2018-01-10T05:07:07.246Z,91.00
2018-01-10T05:12:10.625Z,90.80
2018-01-10T05:17:13.271Z,90.80
2018-01-10T05:22:16.654Z,91.00
2018-01-10T05:27:19.220Z,91.00
2018-01-10T05:32:21.798Z,91.00
2018-01-10T05:37:24.389Z,91.10
2018-01-10T05:42:27.064Z,91.10
2018-01-10T05:47:29.671Z,91.00
2018-01-10T05:52:32.345Z,91.20
2018-01-10T05:57:34.990Z,91.40
2018-01-10T06:02:37.562Z,91.10
2018-01-10T06:07:40.159Z,91.00
2018-01-10T06:12:42.765Z,91.10
2018-01-10T06:17:45.360Z,91.10
2018-01-10T06:22:48.007Z,91.10
2018-01-10T06:27:50.656Z,91.20
2018-01-10T06:32:53.232Z,91.10
2018-01-10T06:37:55.844Z,91.20
2018-01-10T06:42:58.450Z,91.30
2018-01-10T06:48:01.060Z,91.30
2018-01-10T06:53:03.649Z,91.20
2018-01-10T06:58:06.225Z,91.40
2018-01-10T07:03:08.782Z,91.30
2018-01-10T07:08:11.364Z,91.30
2018-01-10T07:13:13.924Z,91.40
2018-01-10T07:18:16.492Z,91.30
2018-01-10T07:23:19.867Z,91.30
2018-01-10T07:28:22.442Z,91.20
2018-01-10T07:33:25.024Z,91.30
2018-01-10T07:38:27.657Z,91.30
2018-01-10T07:43:30.223Z,91.30
2018-01-10T07:48:32.831Z,91.40
2018-01-10T07:53:35.404Z,91.30
2018-01-10T07:58:38.000Z,91.40
2018-01-10T08:03:41.413Z,91.40
2018-01-10T08:08:44.001Z,91.40
2018-01-10T08:13:46.616Z,91.70
2018-01-10T08:18:49.198Z,91.50
2018-01-10T08:23:51.826Z,91.50
2018-01-10T08:28:54.446Z,91.50
2018-01-10T08:33:57.805Z,91.40
2018-01-10T08:39:00.369Z,91.40
2018-01-10T08:44:04.604Z,91.60
2018-01-10T08:49:07.212Z,91.90
2018-01-10T08:54:09.908Z,91.60
2018-01-10T08:59:12.512Z,91.60
2018-01-10T09:04:15.102Z,91.50
2018-01-10T09:09:17.718Z,91.60
2018-01-10T09:14:20.287Z,91.60
2018-01-10T09:19:22.873Z,91.70
2018-01-10T09:24:25.450Z,91.80
2018-01-10T09:29:28.113Z,91.80
2018-01-10T09:34:30.692Z,91.70
2018-01-10T09:39:34.053Z,91.60
2018-01-10T09:44:36.648Z,91.60
2018-01-10T09:49:39.249Z,91.50
2018-01-10T09:54:41.861Z,91.70
2018-01-10T09:59:44.440Z,91.60
2018-01-10T10:04:47.063Z,91.80
2018-01-10T10:09:49.654Z,91.90
2018-01-10T10:14:52.308Z,91.90
2018-01-10T10:19:54.875Z,92.10
2018-01-10T10:24:57.467Z,92.10
2018-01-10T10:30:00.065Z,91.90
2018-01-10T10:35:02.649Z,92.00
2018-01-10T10:40:05.264Z,91.90
2018-01-10T10:45:07.940Z,91.80
2018-01-10T10:50:10.608Z,91.80
2018-01-10T10:55:13.236Z,91.80
2018-01-10T11:00:16.373Z,91.80
2018-01-10T11:05:18.950Z,92.10
2018-01-10T11:10:22.444Z,91.80
2018-01-10T11:15:25.149Z,91.80
2018-01-10T11:20:28.552Z,91.90
2018-01-10T11:25:31.150Z,91.90
2018-01-10T11:30:33.754Z,91.90
2018-01-10T11:35:36.367Z,91.70
2018-01-10T11:40:38.957Z,91.70
2018-01-10T11:45:41.604Z,91.80
2018-01-10T11:50:44.228Z,91.80
2018-01-10T11:55:46.814Z,91.70
2018-01-10T12:00:49.431Z,91.80
2018-01-10T12:05:51.986Z,91.70
2018-01-10T12:10:54.638Z,91.70
2018-01-10T12:15:57.222Z,91.60
2018-01-10T12:20:59.828Z,91.70
2018-01-10T12:26:02.400Z,91.60
2018-01-10T12:31:05.030Z,91.60
2018-01-10T12:36:07.619Z,91.60
2018-01-10T12:41:10.289Z,91.70
2018-01-10T12:46:12.913Z,91.70
2018-01-10T12:51:15.642Z,91.60
2018-01-10T12:56:18.189Z,91.60
2018-01-10T13:01:20.780Z,91.50
2018-01-10T13:06:24.144Z,91.50
2018-01-10T13:11:27.500Z,91.40
2018-01-10T13:16:30.167Z,91.40
2018-01-10T13:21:32.888Z,91.40
2018-01-10T13:26:35.511Z,91.30
2018-01-10T13:31:39.159Z,91.20
2018-01-10T13:36:41.819Z,91.20
2018-01-10T13:41:44.357Z,91.20
2018-01-10T13:46:46.954Z,91.10
2018-01-10T13:51:49.567Z,91.10
2018-01-10T13:56:52.921Z,91.00
2018-01-10T14:01:55.519Z,91.00
2018-01-10T14:06:58.100Z,91.00
2018-01-10T14:12:00.697Z,91.00
2018-01-10T14:17:03.314Z,91.10
2018-01-10T14:22:06.712Z,91.00
2018-01-10T14:27:09.303Z,91.00
2018-01-10T14:32:11.909Z,91.00
2018-01-10T14:37:14.520Z,90.90
2018-01-10T14:42:17.112Z,90.90
2018-01-10T14:47:20.603Z,90.90
2018-01-10T14:52:23.247Z,90.90
2018-01-10T14:57:26.596Z,90.90
2018-01-10T15:02:29.186Z,90.90
2018-01-10T15:07:31.763Z,90.90
2018-01-10T15:12:34.432Z,90.90
2018-01-10T15:17:37.053Z,90.90
2018-01-10T15:22:39.623Z,90.90
2018-01-10T15:27:42.179Z,90.90
2018-01-10T15:32:44.738Z,90.90
2018-01-10T15:37:47.365Z,91.00
2018-01-10T15:42:49.964Z,91.00
2018-01-10T15:47:52.535Z,91.10
2018-01-10T15:52:55.135Z,91.10
2018-01-10T15:57:57.703Z,91.10
2018-01-10T16:03:00.292Z,91.10
2018-01-10T16:08:02.872Z,91.20
2018-01-10T16:13:06.264Z,91.20
2018-01-10T16:18:08.820Z,91.10
2018-01-10T16:23:11.425Z,91.10
2018-01-10T16:28:14.022Z,91.10
2018-01-10T16:33:16.576Z,91.10
2018-01-10T16:38:19.156Z,91.10
2018-01-10T16:43:22.274Z,91.10
2018-01-10T16:48:24.896Z,91.20
2018-01-10T16:53:27.480Z,91.10
2018-01-10T16:58:30.092Z,91.10
2018-01-10T17:03:32.754Z,91.10
2018-01-10T17:08:35.371Z,91.20
2018-01-10T17:13:37.944Z,91.10
2018-01-10T17:18:40.529Z,91.10
2018-01-10T17:23:43.135Z,91.10
2018-01-10T17:28:45.763Z,91.10
2018-01-10T17:33:48.319Z,91.10
2018-01-10T17:38:51.779Z,91.10
2018-01-10T17:43:54.343Z,91.10
2018-01-10T17:48:56.994Z,91.00
2018-01-10T17:53:59.580Z,90.90
2018-01-10T17:59:02.138Z,90.90
2018-01-10T18:04:04.707Z,90.80
2018-01-10T18:09:07.473Z,90.70
2018-01-10T18:14:10.042Z,90.60
2018-01-10T18:19:13.497Z,90.50
2018-01-10T18:24:16.102Z,90.50
2018-01-10T18:29:18.695Z,90.50
2018-01-10T18:34:21.267Z,90.40
2018-01-10T18:39:24.645Z,90.40
2018-01-10T18:44:27.248Z,90.30
2018-01-10T18:49:29.887Z,90.30
2018-01-10T18:54:32.501Z,90.40
2018-01-10T18:59:35.116Z,90.30
2018-01-10T19:04:37.710Z,90.40
2018-01-10T19:09:40.333Z,90.50
2018-01-10T19:14:42.908Z,90.50
2018-01-10T19:19:45.707Z,90.50
2018-01-10T19:24:48.272Z,90.60
2018-01-10T19:29:50.851Z,90.60
2018-01-10T19:34:53.436Z,90.60
2018-01-10T19:39:56.040Z,90.70
2018-01-10T19:44:58.652Z,90.70
2018-01-10T19:50:01.282Z,90.70
2018-01-10T19:55:03.946Z,90.70
2018-01-10T20:00:06.514Z,90.80
2018-01-10T20:05:09.147Z,90.70
2018-01-10T20:10:11.727Z,90.60
2018-01-10T20:15:14.328Z,90.60
2018-01-10T20:20:16.921Z,90.50
2018-01-10T20:25:19.561Z,90.50
2018-01-10T20:30:22.198Z,90.50
2018-01-10T20:35:24.811Z,90.60
2018-01-10T20:40:28.174Z,90.60
2018-01-10T20:45:30.750Z,90.60
2018-01-10T20:50:33.819Z,90.60
2018-01-10T20:55:36.404Z,90.60
2018-01-10T21:00:38.951Z,90.60
2018-01-10T21:05:41.508Z,90.60
2018-01-10T21:10:44.124Z,90.50
2018-01-10T21:15:46.688Z,90.60
2018-01-10T21:20:49.319Z,90.50
2018-01-10T21:25:51.883Z,90.50
2018-01-10T21:30:54.458Z,90.60
2018-01-10T21:35:57.031Z,90.50
2018-01-10T21:41:00.362Z,90.70
2018-01-10T21:46:03.720Z,90.60
2018-01-10T21:51:06.312Z,90.60
2018-01-10T21:56:08.992Z,90.70
2018-01-10T22:01:11.562Z,90.70
2018-01-10T22:06:14.177Z,90.70
2018-01-10T22:11:17.544Z,90.60
2018-01-10T22:16:20.138Z,90.60
2018-01-10T22:21:22.748Z,90.70
2018-01-10T22:26:25.346Z,90.80
2018-01-10T22:31:27.927Z,90.90
2018-01-10T22:36:30.577Z,90.80
2018-01-10T22:41:33.106Z,90.80
2018-01-10T22:46:36.465Z,90.80
2018-01-10T22:51:39.109Z,90.80
2018-01-10T22:56:41.679Z,91.30
2018-01-10T23:01:44.290Z,91.00
2018-01-10T23:06:46.871Z,91.00
2018-01-10T23:11:49.461Z,91.30
2018-01-10T23:16:52.031Z,91.10
2018-01-10T23:21:54.621Z,91.00
2018-01-10T23:26:57.210Z,91.10
2018-01-10T23:32:00.569Z,91.50
2018-01-10T23:37:03.133Z,91.20
2018-01-10T23:42:05.707Z,91.20
2018-01-10T23:47:08.262Z,91.20
2018-01-10T23:52:10.832Z,91.10
2018-01-10T23:57:14.215Z,91.00
